Back to top

Riverton, WY weather

Riverton Regional Airport, Riverton, WY: 8/18/2022 02:53
Visibility10 statute milesclear sky
View 7-Day Forecast
Area Summary
Sky/CloudsSky Clear
Weather [last 24 hours]None
Pressure30.28 in.Hg (1026 hPa)
3-hour Pressure Tendency0.008858 in.Hg (0.3 hPa) Decreasing or steady, then increasing; or increasing then increasing more rapidly
Dew Point36 °F (2.2 °C)
Relative Humidity30.7 %
Temperature68 °F (20 °C)red thermometer
Reading TimeMinimum to Maximum Temperature
6-hr ending 8/17@23:5366.9 °F to 90 °F (19.4 °C to 32.2 °C)
6-hr ending 8/17@17:5382 °F to 93 °F (27.8 °C to 33.9 °C)
6-hr ending 8/17@11:5354 °F to 82.9 °F (12.2 °C to 28.3 °C)
6-hr ending 8/17@05:5354 °F to 72 °F (12.2 °C to 22.2 °C)
24-hr ending 8/18@00:5354 °F to 93 °F (12.2 °C to 33.9 °C)
Wind3.45 MPH (3 KT) green arrow pointing 67.5 degrees
Wind FromEast/Northeast (070 Degrees)
Twilight Begins05:53Sunshine Yesterday
Sunrise06:23N/A
Sunset20:11
Twilight Ends20:42
METARKRIW 180853Z AUTO 07003KT 10SM CLR 20/02 A3028 RMK AO2 SLP174 T02000022 53003
Tags: